createdAt,value
2018-07-22T00:00:10.404Z,100812.17
2018-07-22T00:02:40.191Z,100811.90
2018-07-22T00:05:09.672Z,100811.98
2018-07-22T00:07:39.260Z,100806.91
2018-07-22T00:10:24.337Z,100804.48
2018-07-22T00:12:53.763Z,100810.21
2018-07-22T00:15:23.201Z,100801.34
2018-07-22T00:17:52.614Z,100812.66
2018-07-22T00:20:22.781Z,100805.95
2018-07-22T00:22:52.166Z,100803.98
2018-07-22T00:25:21.547Z,100801.27
2018-07-22T00:27:50.922Z,100796.25
2018-07-22T00:30:21.037Z,100796.97
2018-07-22T00:32:50.484Z,100800.48
2018-07-22T00:35:19.898Z,100802.61
2018-07-22T00:37:49.346Z,100799.66
2018-07-22T00:40:18.717Z,100803.63
2018-07-22T00:42:47.834Z,100799.41
2018-07-22T00:45:17.261Z,100805.58
2018-07-22T00:47:46.378Z,100796.25
2018-07-22T00:50:15.766Z,100803.30
2018-07-22T00:52:45.190Z,100799.28
2018-07-22T00:55:14.607Z,100799.22
2018-07-22T00:57:43.967Z,100795.64
2018-07-22T01:00:13.388Z,100790.41
2018-07-22T01:02:42.746Z,100790.52
2018-07-22T01:05:12.117Z,100786.78
2018-07-22T01:07:41.462Z,100785.61
2018-07-22T01:10:11.157Z,100785.84
2018-07-22T01:12:40.625Z,100786.58
2018-07-22T01:15:10.070Z,100786.05
2018-07-22T01:17:39.549Z,100789.72
2018-07-22T01:20:09.495Z,100786.14
2018-07-22T01:22:39.392Z,100789.54
2018-07-22T01:25:08.841Z,100788.81
2018-07-22T01:27:38.222Z,100789.84
2018-07-22T01:30:09.602Z,100791.68
2018-07-22T01:32:39.489Z,100784.41
2018-07-22T01:35:08.996Z,100789.84
2018-07-22T01:37:38.375Z,100786.91
2018-07-22T01:40:08.233Z,100785.94
2018-07-22T01:42:37.618Z,100783.75
2018-07-22T01:45:07.006Z,100788.99
2018-07-22T01:47:36.211Z,100785.36
2018-07-22T01:50:05.622Z,100782.92
2018-07-22T01:52:35.029Z,100779.65
2018-07-22T01:55:04.441Z,100773.81
2018-07-22T01:57:33.854Z,100778.19
2018-07-22T02:00:03.265Z,100772.88
2018-07-22T02:02:32.646Z,100778.11
2018-07-22T02:05:02.091Z,100779.13
2018-07-22T02:07:31.286Z,100773.17
2018-07-22T02:10:00.714Z,100774.15
2018-07-22T02:12:30.179Z,100769.58
2018-07-22T02:14:59.539Z,100766.59
2018-07-22T02:17:28.881Z,100765.67
2018-07-22T02:19:58.301Z,100763.35
2018-07-22T02:22:27.719Z,100770.08
2018-07-22T02:24:57.078Z,100768.98
2018-07-22T02:27:26.440Z,100766.63
2018-07-22T02:29:55.815Z,100769.16
2018-07-22T02:32:25.354Z,100765.44
2018-07-22T02:34:54.729Z,100769.77
2018-07-22T02:37:24.829Z,100768.25
2018-07-22T02:39:54.164Z,100765.72
2018-07-22T02:42:23.534Z,100770.02
2018-07-22T02:44:52.886Z,100769.28
2018-07-22T02:47:22.303Z,100766.59
2018-07-22T02:49:51.784Z,100764.80
2018-07-22T02:52:21.134Z,100761.20
2018-07-22T02:54:50.958Z,100764.93
2018-07-22T02:57:20.331Z,100763.66
2018-07-22T02:59:49.686Z,100761.91
2018-07-22T03:02:19.446Z,100758.38
2018-07-22T03:04:48.788Z,100752.05
2018-07-22T03:07:18.142Z,100750.45
2018-07-22T03:09:47.487Z,100746.13
2018-07-22T03:12:16.850Z,100744.87
2018-07-22T03:14:46.183Z,100752.20
2018-07-22T03:17:15.590Z,100747.91
2018-07-22T03:19:45.174Z,100748.31
2018-07-22T03:22:14.552Z,100755.22
2018-07-22T03:24:43.914Z,100756.09
2018-07-22T03:27:13.258Z,100759.02
2018-07-22T03:29:42.898Z,100751.80
2018-07-22T03:32:12.009Z,100756.83
2018-07-22T03:34:41.330Z,100758.47
2018-07-22T03:37:10.764Z,100757.36
2018-07-22T03:39:40.134Z,100758.13
2018-07-22T03:42:09.520Z,100752.61
2018-07-22T03:44:38.900Z,100751.09
2018-07-22T03:47:08.298Z,100757.53
2018-07-22T03:49:37.665Z,100756.35
2018-07-22T03:52:07.010Z,100755.48
2018-07-22T03:54:36.385Z,100759.63
2018-07-22T03:57:05.485Z,100750.09
2018-07-22T03:59:34.856Z,100751.30
2018-07-22T04:02:04.251Z,100750.77
2018-07-22T04:04:33.607Z,100750.34
2018-07-22T04:07:02.981Z,100747.92
2018-07-22T04:09:32.356Z,100740.09
2018-07-22T04:12:01.738Z,100737.56
2018-07-22T04:14:31.182Z,100737.53
2018-07-22T04:17:00.507Z,100741.17
2018-07-22T04:19:29.910Z,100737.06
2018-07-22T04:21:59.285Z,100736.47
2018-07-22T04:24:28.673Z,100737.96
2018-07-22T04:26:58.166Z,100734.66
2018-07-22T04:29:27.530Z,100736.63
2018-07-22T04:31:56.877Z,100741.83
2018-07-22T04:34:47.012Z,100745.74
2018-07-22T04:37:16.389Z,100744.70
2018-07-22T04:39:45.729Z,100739.89
2018-07-22T04:42:15.122Z,100745.58
2018-07-22T04:44:44.498Z,100748.82
2018-07-22T04:47:13.895Z,100750.45
2018-07-22T04:49:43.313Z,100750.70
2018-07-22T04:52:12.707Z,100745.95
2018-07-22T04:54:42.183Z,100750.48
2018-07-22T04:57:11.549Z,100756.72
2018-07-22T04:59:40.930Z,100761.72
2018-07-22T05:02:10.803Z,100762.80
2018-07-22T05:04:40.180Z,100761.04
2018-07-22T05:07:09.550Z,100759.55
2018-07-22T05:09:38.998Z,100762.61
2018-07-22T05:12:08.796Z,100766.28
2018-07-22T05:14:38.216Z,100769.37
2018-07-22T05:17:07.568Z,100770.08
2018-07-22T05:19:36.919Z,100773.66
2018-07-22T05:22:06.317Z,100771.40
2018-07-22T05:24:35.682Z,100773.34
2018-07-22T05:27:05.121Z,100774.94
2018-07-22T05:29:34.457Z,100771.88
2018-07-22T05:32:04.074Z,100777.18
2018-07-22T05:34:33.146Z,100775.22
2018-07-22T05:37:02.541Z,100774.21
2018-07-22T05:39:32.173Z,100778.64
2018-07-22T05:42:01.594Z,100772.05
2018-07-22T05:44:30.917Z,100778.07
2018-07-22T05:47:00.709Z,100774.69
2018-07-22T05:49:30.188Z,100774.27
2018-07-22T05:51:59.576Z,100783.25
2018-07-22T05:54:29.002Z,100783.08
2018-07-22T05:56:58.594Z,100785.69
2018-07-22T05:59:28.217Z,100785.47
2018-07-22T06:01:57.597Z,100787.81
2018-07-22T06:04:27.006Z,100786.88
2018-07-22T06:06:56.530Z,100784.05
2018-07-22T06:09:25.933Z,100785.20
2018-07-22T06:11:55.409Z,100785.41
2018-07-22T06:14:24.775Z,100786.30
2018-07-22T06:16:54.117Z,100783.51
2018-07-22T06:19:23.583Z,100783.03
2018-07-22T06:21:53.045Z,100786.33
2018-07-22T06:24:22.422Z,100792.17
2018-07-22T06:26:51.847Z,100783.92
2018-07-22T06:29:21.646Z,100788.72
2018-07-22T06:31:51.077Z,100789.71
2018-07-22T06:34:20.442Z,100789.16
2018-07-22T06:36:49.769Z,100783.25
2018-07-22T06:39:19.190Z,100783.75
2018-07-22T06:41:48.569Z,100782.59
2018-07-22T06:44:17.994Z,100779.64
2018-07-22T06:46:47.406Z,100781.29
2018-07-22T06:49:16.777Z,100777.02
2018-07-22T06:51:46.178Z,100772.27
2018-07-22T06:54:15.937Z,100768.63
2018-07-22T06:56:45.261Z,100770.94
2018-07-22T06:59:14.701Z,100773.75
2018-07-22T07:01:44.105Z,100771.16
2018-07-22T07:04:13.510Z,100774.23
2018-07-22T07:06:43.046Z,100774.57
2018-07-22T07:09:13.010Z,100771.22
2018-07-22T07:11:42.421Z,100772.24
2018-07-22T07:14:12.293Z,100778.23
2018-07-22T07:16:41.675Z,100780.34
2018-07-22T07:19:11.057Z,100778.05
2018-07-22T07:21:40.486Z,100782.61
2018-07-22T07:24:09.877Z,100778.20
2018-07-22T07:26:39.342Z,100788.16
2018-07-22T07:29:09.389Z,100792.19
2018-07-22T07:31:38.690Z,100787.97
2018-07-22T07:34:08.561Z,100790.23
2018-07-22T07:36:38.042Z,100800.63
2018-07-22T07:39:11.373Z,100798.62
2018-07-22T07:41:40.997Z,100805.08
2018-07-22T07:44:10.886Z,100808.56
2018-07-22T07:46:40.279Z,100808.94
2018-07-22T07:49:09.990Z,100808.20
2018-07-22T07:51:39.381Z,100809.73
2018-07-22T07:54:09.118Z,100807.45
2018-07-22T07:56:38.576Z,100812.18
2018-07-22T07:59:07.970Z,100814.00
2018-07-22T08:01:37.446Z,100814.16
2018-07-22T08:04:06.935Z,100814.89
2018-07-22T08:06:36.404Z,100817.08
2018-07-22T08:09:08.188Z,100820.56
2018-07-22T08:11:37.855Z,100817.16
2018-07-22T08:14:07.178Z,100821.91
2018-07-22T08:16:37.363Z,100822.21
2018-07-22T08:19:06.908Z,100818.46
2018-07-22T08:21:36.187Z,100824.62
2018-07-22T08:24:05.658Z,100819.55
2018-07-22T08:26:35.125Z,100830.17
2018-07-22T08:29:26.535Z,100833.08
2018-07-22T08:31:55.955Z,100832.78
2018-07-22T08:34:25.395Z,100831.30
2018-07-22T08:36:55.181Z,100831.17
2018-07-22T08:39:25.722Z,100827.09
2018-07-22T08:41:55.681Z,100828.80
2018-07-22T08:44:25.065Z,100837.95
2018-07-22T08:46:54.505Z,100827.81
2018-07-22T08:49:23.993Z,100831.84
2018-07-22T08:51:53.398Z,100836.92
2018-07-22T08:54:22.808Z,100835.89
2018-07-22T08:56:52.256Z,100834.17
2018-07-22T08:59:21.694Z,100834.33
2018-07-22T09:01:51.779Z,100834.56
2018-07-22T09:04:21.166Z,100834.48
2018-07-22T09:06:50.647Z,100832.38
2018-07-22T09:09:20.008Z,100839.49
2018-07-22T09:11:49.655Z,100843.83
2018-07-22T09:14:18.969Z,100840.17
2018-07-22T09:16:48.425Z,100840.11
2018-07-22T09:19:17.783Z,100844.02
2018-07-22T09:21:47.198Z,100846.16
2018-07-22T09:24:16.634Z,100857.67
2018-07-22T09:26:45.981Z,100859.07
2018-07-22T09:29:15.758Z,100864.39
2018-07-22T09:31:45.125Z,100855.66
2018-07-22T09:34:14.606Z,100859.88
2018-07-22T09:36:44.034Z,100858.56
2018-07-22T09:39:13.414Z,100866.22
2018-07-22T09:41:42.826Z,100871.34
2018-07-22T09:44:12.277Z,100876.22
2018-07-22T09:46:41.638Z,100870.17
2018-07-22T09:49:11.043Z,100870.72
2018-07-22T09:51:40.482Z,100871.45
2018-07-22T09:54:09.976Z,100874.91
2018-07-22T09:56:39.357Z,100868.31
2018-07-22T09:59:08.803Z,100877.37
2018-07-22T10:01:38.952Z,100873.19
2018-07-22T10:04:08.321Z,100875.13
2018-07-22T10:06:37.725Z,100868.28
2018-07-22T10:09:10.294Z,100878.84
2018-07-22T10:11:39.733Z,100874.45
2018-07-22T10:14:09.269Z,100874.45
2018-07-22T10:16:38.732Z,100875.52
2018-07-22T10:19:08.274Z,100877.38
2018-07-22T10:21:37.917Z,100872.70
2018-07-22T10:24:07.327Z,100875.92
2018-07-22T10:26:36.717Z,100865.38
2018-07-22T10:29:06.637Z,100875.33
2018-07-22T10:31:36.312Z,100870.20
2018-07-22T10:34:05.655Z,100873.14
2018-07-22T10:36:34.974Z,100870.10
2018-07-22T10:39:06.645Z,100870.30
2018-07-22T10:41:35.766Z,100867.34
2018-07-22T10:44:05.170Z,100869.41
2018-07-22T10:46:35.027Z,100871.53
2018-07-22T10:49:04.398Z,100867.72
2018-07-22T10:51:33.869Z,100864.65
2018-07-22T10:54:03.095Z,100872.42
2018-07-22T10:56:32.538Z,100868.37
2018-07-22T10:59:01.886Z,100865.25
2018-07-22T11:01:31.286Z,100859.11
2018-07-22T11:04:00.622Z,100864.40
2018-07-22T11:06:30.069Z,100867.30
2018-07-22T11:08:59.578Z,100864.60
2018-07-22T11:11:28.944Z,100878.31
2018-07-22T11:13:58.661Z,100867.86
2018-07-22T11:16:28.114Z,100867.91
2018-07-22T11:18:57.819Z,100858.88
2018-07-22T11:21:27.320Z,100857.44
2018-07-22T11:23:57.029Z,100858.25
2018-07-22T11:26:26.501Z,100868.06
2018-07-22T11:28:56.006Z,100879.66
2018-07-22T11:31:25.346Z,100873.53
2018-07-22T11:33:54.725Z,100869.93
2018-07-22T11:36:24.050Z,100874.33
2018-07-22T11:38:53.422Z,100878.09
2018-07-22T11:41:22.781Z,100872.06
2018-07-22T11:43:52.545Z,100876.08
2018-07-22T11:46:21.889Z,100880.64
2018-07-22T11:48:53.006Z,100882.62
2018-07-22T11:51:22.439Z,100886.60
2018-07-22T11:53:51.891Z,100904.64
2018-07-22T11:56:21.250Z,100884.94
2018-07-22T11:58:50.837Z,100891.95
2018-07-22T12:01:20.921Z,100894.46
2018-07-22T12:03:50.594Z,100901.39
2018-07-22T12:06:19.988Z,100892.69
2018-07-22T12:08:49.692Z,100889.79
2018-07-22T12:11:19.167Z,100891.75
2018-07-22T12:13:48.646Z,100889.83
2018-07-22T12:16:18.726Z,100895.17
2018-07-22T12:18:48.197Z,100891.13
2018-07-22T12:21:17.698Z,100906.33
2018-07-22T12:23:47.202Z,100901.14
2018-07-22T12:26:16.549Z,100900.12
2018-07-22T12:28:45.913Z,100896.86
2018-07-22T12:31:15.539Z,100904.48
2018-07-22T12:33:44.901Z,100905.71
2018-07-22T12:36:14.383Z,100905.73
2018-07-22T12:38:43.740Z,100903.87
2018-07-22T12:41:13.149Z,100898.48
2018-07-22T12:43:42.548Z,100897.64
2018-07-22T12:46:11.944Z,100897.53
2018-07-22T12:48:41.480Z,100896.47
2018-07-22T12:51:11.202Z,100897.55
2018-07-22T12:53:40.596Z,100902.72
2018-07-22T12:56:10.453Z,100901.52
2018-07-22T12:58:39.765Z,100897.27
2018-07-22T13:01:09.186Z,100893.14
2018-07-22T13:03:38.721Z,100896.88
2018-07-22T13:06:08.186Z,100900.23
2018-07-22T13:08:37.605Z,100900.86
2018-07-22T13:11:07.367Z,100899.78
2018-07-22T13:13:36.836Z,100894.25
2018-07-22T13:16:06.230Z,100894.07
2018-07-22T13:18:35.928Z,100899.91
2018-07-22T13:21:05.476Z,100895.42
2018-07-22T13:23:35.099Z,100910.55
2018-07-22T13:26:04.642Z,100892.52
2018-07-22T13:28:33.985Z,100912.09
2018-07-22T13:31:03.388Z,100905.19
2018-07-22T13:33:32.757Z,100909.16
2018-07-22T13:36:02.173Z,100902.18
2018-07-22T13:38:31.572Z,100908.36
2018-07-22T13:41:00.965Z,100907.28
2018-07-22T13:43:30.310Z,100916.22
2018-07-22T13:45:59.653Z,100918.03
2018-07-22T13:48:29.029Z,100917.13
2018-07-22T13:50:58.242Z,100933.77
2018-07-22T13:53:27.686Z,100925.31
2018-07-22T13:55:57.258Z,100918.52
2018-07-22T13:58:26.787Z,100917.38
2018-07-22T14:00:56.260Z,100917.85
2018-07-22T14:03:25.621Z,100912.68
2018-07-22T14:05:55.005Z,100915.09
2018-07-22T14:08:24.354Z,100924.16
2018-07-22T14:10:53.711Z,100926.38
2018-07-22T14:13:23.158Z,100928.69
2018-07-22T14:15:52.535Z,100930.02
2018-07-22T14:18:22.037Z,100933.53
2018-07-22T14:20:51.455Z,100937.72
2018-07-22T14:23:21.011Z,100936.14
2018-07-22T14:25:50.797Z,100939.71
2018-07-22T14:28:20.255Z,100941.69
2018-07-22T14:30:49.677Z,100935.37
2018-07-22T14:33:19.098Z,100926.71
2018-07-22T14:35:48.456Z,100941.63
2018-07-22T14:38:17.901Z,100950.09
2018-07-22T14:40:47.341Z,100942.69
2018-07-22T14:43:16.743Z,100951.38
2018-07-22T14:45:46.234Z,100957.47
2018-07-22T14:48:15.618Z,100952.08
2018-07-22T14:50:45.147Z,100961.02
2018-07-22T14:53:14.493Z,100965.39
2018-07-22T14:55:43.841Z,100964.30
2018-07-22T14:58:13.222Z,100971.27
2018-07-22T15:00:42.849Z,100968.28
2018-07-22T15:03:12.199Z,100969.52
2018-07-22T15:05:41.647Z,100973.01
2018-07-22T15:08:11.059Z,100970.56
2018-07-22T15:10:40.569Z,100985.51
2018-07-22T15:13:09.954Z,100978.75
2018-07-22T15:15:39.396Z,100972.95
2018-07-22T15:18:08.673Z,100975.82
2018-07-22T15:20:38.011Z,100963.59
2018-07-22T15:23:07.360Z,100977.38
2018-07-22T15:25:36.765Z,100980.70
2018-07-22T15:28:06.618Z,100983.38
2018-07-22T15:30:35.952Z,100988.85
2018-07-22T15:33:05.431Z,101001.65
2018-07-22T15:35:34.946Z,100991.14
2018-07-22T15:38:04.431Z,100983.45
2018-07-22T15:40:58.532Z,100990.00
2018-07-22T15:43:32.065Z,100991.94
2018-07-22T15:46:01.434Z,101000.53
2018-07-22T15:50:44.406Z,100995.53
2018-07-22T15:53:13.813Z,101002.33
2018-07-22T15:55:43.437Z,101002.52
2018-07-22T15:58:12.855Z,100996.22
2018-07-22T16:00:42.166Z,101004.36
2018-07-22T16:03:11.886Z,101011.59
2018-07-22T16:05:41.260Z,101011.86
2018-07-22T16:08:10.649Z,101012.02
2018-07-22T16:10:40.314Z,101003.35
2018-07-22T16:13:09.685Z,101008.80
2018-07-22T16:15:39.017Z,101019.11
2018-07-22T16:18:08.514Z,101018.12
2018-07-22T16:20:38.514Z,101013.39
2018-07-22T16:23:07.996Z,101012.82
2018-07-22T16:25:37.422Z,101013.45
2018-07-22T16:28:06.748Z,101023.36
2018-07-22T16:30:36.127Z,101016.13
2018-07-22T16:33:05.521Z,101020.55
2018-07-22T16:35:35.090Z,101014.39
2018-07-22T16:38:04.634Z,101017.19
2018-07-22T16:40:33.941Z,101020.52
2018-07-22T16:43:03.318Z,101014.80
2018-07-22T16:45:32.742Z,101014.64
2018-07-22T16:51:37.420Z,101019.16
2018-07-22T16:54:06.815Z,101027.52
2018-07-22T16:56:36.237Z,101023.00
2018-07-22T16:59:05.611Z,101024.69
2018-07-22T17:01:34.994Z,101021.64
2018-07-22T17:04:04.366Z,101026.69
2018-07-22T17:09:53.304Z,101022.25
2018-07-22T17:12:29.066Z,101021.08
2018-07-22T17:15:05.097Z,101030.28
2018-07-22T17:17:34.634Z,101026.04
2018-07-22T17:20:04.386Z,101026.71
2018-07-22T17:25:37.245Z,101035.24
2018-07-22T17:28:15.368Z,101042.88
2018-07-22T17:30:44.832Z,101026.42
2018-07-22T17:36:21.130Z,101035.04
2018-07-22T17:38:58.666Z,101042.36
2018-07-22T17:41:36.291Z,101040.34
2018-07-22T17:44:05.950Z,101043.30
2018-07-22T17:46:36.291Z,101039.25
2018-07-22T17:49:05.981Z,101047.41
2018-07-22T17:51:35.418Z,101037.64
2018-07-22T17:54:05.144Z,101040.33
2018-07-22T17:56:34.477Z,101043.95
2018-07-22T17:59:03.921Z,101046.08
2018-07-22T18:01:33.347Z,101048.70
2018-07-22T18:04:02.776Z,101055.58
2018-07-22T18:06:32.750Z,101059.98
2018-07-22T18:09:02.178Z,101057.58
2018-07-22T18:11:31.469Z,101061.13
2018-07-22T18:14:00.842Z,101069.11
2018-07-22T18:16:30.547Z,101075.78
2018-07-22T18:18:59.897Z,101066.17
2018-07-22T18:21:29.003Z,101067.26
2018-07-22T18:23:58.418Z,101079.32
2018-07-22T18:26:27.916Z,101071.98
2018-07-22T18:28:57.101Z,101070.22
2018-07-22T18:31:26.313Z,101073.11
2018-07-22T18:33:55.671Z,101071.00
2018-07-22T18:36:25.269Z,101074.05
2018-07-22T18:38:54.632Z,101075.02
2018-07-22T18:41:24.070Z,101077.41
2018-07-22T18:43:53.518Z,101080.16
2018-07-22T18:46:23.009Z,101078.71
2018-07-22T18:48:52.474Z,101081.44
2018-07-22T18:51:21.882Z,101094.23
2018-07-22T18:53:51.649Z,101087.56
2018-07-22T18:56:21.110Z,101093.21
2018-07-22T18:58:50.653Z,101091.86
2018-07-22T19:01:20.082Z,101089.02
2018-07-22T19:03:49.745Z,101092.77
2018-07-22T19:06:19.142Z,101099.92
2018-07-22T19:08:48.542Z,101096.58
2018-07-22T19:11:17.989Z,101099.62
2018-07-22T19:13:47.349Z,101098.61
2018-07-22T19:16:16.906Z,101096.20
2018-07-22T19:18:46.068Z,101091.05
2018-07-22T19:21:15.633Z,101097.16
2018-07-22T19:23:45.019Z,101103.70
2018-07-22T19:26:14.143Z,101101.87
2018-07-22T19:28:43.928Z,101103.55
2018-07-22T19:31:13.937Z,101106.52
2018-07-22T19:33:43.322Z,101109.42
2018-07-22T19:36:12.654Z,101110.50
2018-07-22T19:38:42.218Z,101116.75
2018-07-22T19:41:11.641Z,101121.17
2018-07-22T19:43:40.995Z,101120.14
2018-07-22T19:46:10.335Z,101124.89
2018-07-22T19:48:39.973Z,101129.39
2018-07-22T19:51:09.338Z,101129.05
2018-07-22T19:53:53.661Z,101129.63
2018-07-22T19:56:23.106Z,101128.13
2018-07-22T19:58:53.666Z,101126.48
2018-07-22T20:01:23.027Z,101132.41
2018-07-22T20:03:52.420Z,101134.37
2018-07-22T20:06:55.221Z,101138.28
2018-07-22T20:09:24.537Z,101142.59
2018-07-22T20:11:54.119Z,101142.23
2018-07-22T20:14:23.477Z,101141.22
2018-07-22T20:16:52.878Z,101149.75
2018-07-22T20:19:22.842Z,101151.23
2018-07-22T20:21:52.366Z,101153.28
2018-07-22T20:24:21.974Z,101157.31
2018-07-22T20:26:51.518Z,101160.48
2018-07-22T20:29:21.018Z,101160.34
2018-07-22T20:31:52.827Z,101158.86
2018-07-22T20:34:22.258Z,101157.88
2018-07-22T20:36:51.790Z,101166.84
2018-07-22T20:39:21.145Z,101163.73
2018-07-22T20:41:50.887Z,101164.66
2018-07-22T20:44:20.270Z,101170.62
2018-07-22T20:46:51.014Z,101172.86
2018-07-22T20:49:20.114Z,101179.31
2018-07-22T20:51:49.465Z,101175.95
2018-07-22T20:54:18.950Z,101173.60
2018-07-22T20:56:48.383Z,101178.55
2018-07-22T20:59:17.840Z,101178.39
2018-07-22T21:01:47.993Z,101180.67
2018-07-22T21:04:17.409Z,101181.64
2018-07-22T21:06:46.763Z,101182.20
2018-07-22T21:09:16.110Z,101188.05
2018-07-22T21:13:02.965Z,101184.43
2018-07-22T21:15:32.776Z,101189.66
2018-07-22T21:18:13.706Z,101193.53
2018-07-22T21:21:10.279Z,101195.86
2018-07-22T21:23:39.594Z,101200.08
2018-07-22T21:26:08.969Z,101205.14
2018-07-22T21:28:39.986Z,101200.94
2018-07-22T21:31:11.309Z,101202.73
2018-07-22T21:33:40.729Z,101208.20
2018-07-22T21:36:11.099Z,101200.22
2018-07-22T21:38:52.558Z,101205.91
2018-07-22T21:41:21.892Z,101208.62
2018-07-22T21:43:51.339Z,101205.61
2018-07-22T21:46:20.701Z,101206.02
2018-07-22T21:48:50.030Z,101207.90
2018-07-22T21:51:19.460Z,101205.80
2018-07-22T21:53:48.842Z,101202.59
2018-07-22T21:56:18.182Z,101206.42
2018-07-22T21:58:47.607Z,101211.00
2018-07-22T22:01:16.948Z,101212.00
2018-07-22T22:03:46.358Z,101208.17
2018-07-22T22:06:15.739Z,101212.05
2018-07-22T22:09:30.839Z,101210.02
2018-07-22T22:12:00.429Z,101215.26
2018-07-22T22:14:30.086Z,101213.25
2018-07-22T22:16:59.498Z,101214.46
2018-07-22T22:19:29.170Z,101217.14
2018-07-22T22:21:58.558Z,101217.04
2018-07-22T22:24:27.934Z,101219.28
2018-07-22T22:26:57.309Z,101223.55
2018-07-22T22:29:26.670Z,101221.11
2018-07-22T22:31:56.039Z,101221.16
2018-07-22T22:34:25.387Z,101217.05
2018-07-22T22:36:55.551Z,101219.48
2018-07-22T22:39:24.643Z,101218.62
2018-07-22T22:41:54.042Z,101219.20
2018-07-22T22:44:23.869Z,101215.08
2018-07-22T22:46:53.230Z,101216.30
2018-07-22T22:49:22.565Z,101215.97
2018-07-22T22:51:51.912Z,101215.55
2018-07-22T22:54:21.327Z,101213.82
2018-07-22T22:56:50.678Z,101219.38
2018-07-22T22:59:24.976Z,101218.20
2018-07-22T23:01:54.802Z,101220.22
2018-07-22T23:04:24.210Z,101217.38
2018-07-22T23:06:53.608Z,101219.13
2018-07-22T23:09:22.958Z,101218.84
2018-07-22T23:11:53.541Z,101220.98
2018-07-22T23:14:22.922Z,101223.55
2018-07-22T23:22:14.747Z,101218.96
2018-07-22T23:24:51.805Z,101218.58
2018-07-22T23:30:06.080Z,101222.90
2018-07-22T23:32:35.797Z,101221.59
2018-07-22T23:35:05.227Z,101214.95
2018-07-22T23:37:35.742Z,101217.52
2018-07-22T23:40:05.134Z,101223.81
2018-07-22T23:42:34.882Z,101227.64
2018-07-22T23:45:04.299Z,101224.70
2018-07-22T23:47:33.610Z,101231.45
2018-07-22T23:50:02.956Z,101225.22
2018-07-22T23:52:32.334Z,101232.78
2018-07-22T23:55:01.726Z,101236.19
2018-07-22T23:57:31.168Z,101235.77
